sensor_id;sensor_type;location;lat;lon;timestamp;P1;durP1;ratioP1;P2;durP2;ratioP2
76373;SDS011;65197;50.164;8.012;2023-01-08T00:00:54;14.98;;;8.32;;
76373;SDS011;65197;50.164;8.012;2023-01-08T00:03:20;22.20;;;14.23;;
76373;SDS011;65197;50.164;8.012;2023-01-08T00:05:45;15.27;;;9.73;;
76373;SDS011;65197;50.164;8.012;2023-01-08T00:08:10;12.07;;;8.38;;
76373;SDS011;65197;50.164;8.012;2023-01-08T00:10:36;15.32;;;8.93;;
76373;SDS011;65197;50.164;8.012;2023-01-08T00:13:03;14.43;;;7.70;;
76373;SDS011;65197;50.164;8.012;2023-01-08T00:15:29;11.77;;;7.80;;
76373;SDS011;65197;50.164;8.012;2023-01-08T00:17:55;11.38;;;6.93;;
76373;SDS011;65197;50.164;8.012;2023-01-08T00:20:21;13.00;;;8.43;;
76373;SDS011;65197;50.164;8.012;2023-01-08T00:22:47;20.35;;;13.05;;
76373;SDS011;65197;50.164;8.012;2023-01-08T00:25:13;17.95;;;11.23;;
76373;SDS011;65197;50.164;8.012;2023-01-08T00:27:39;19.80;;;11.45;;
76373;SDS011;65197;50.164;8.012;2023-01-08T00:30:04;25.23;;;14.43;;
76373;SDS011;65197;50.164;8.012;2023-01-08T00:32:30;14.63;;;10.13;;
76373;SDS011;65197;50.164;8.012;2023-01-08T00:34:55;10.75;;;7.00;;
76373;SDS011;65197;50.164;8.012;2023-01-08T00:37:21;18.80;;;12.25;;
76373;SDS011;65197;50.164;8.012;2023-01-08T00:39:46;11.57;;;7.63;;
76373;SDS011;65197;50.164;8.012;2023-01-08T00:42:11;21.30;;;10.88;;
76373;SDS011;65197;50.164;8.012;2023-01-08T00:44:37;19.80;;;11.50;;
76373;SDS011;65197;50.164;8.012;2023-01-08T00:47:02;9.32;;;6.10;;
76373;SDS011;65197;50.164;8.012;2023-01-08T00:49:27;21.70;;;12.63;;
76373;SDS011;65197;50.164;8.012;2023-01-08T00:51:53;10.77;;;6.43;;
76373;SDS011;65197;50.164;8.012;2023-01-08T00:54:18;14.77;;;9.88;;
76373;SDS011;65197;50.164;8.012;2023-01-08T00:56:44;12.13;;;6.75;;
76373;SDS011;65197;50.164;8.012;2023-01-08T00:59:09;15.60;;;8.25;;
76373;SDS011;65197;50.164;8.012;2023-01-08T01:01:34;21.17;;;9.88;;
76373;SDS011;65197;50.164;8.012;2023-01-08T01:04:00;9.55;;;6.75;;
76373;SDS011;65197;50.164;8.012;2023-01-08T01:06:25;13.02;;;6.75;;
76373;SDS011;65197;50.164;8.012;2023-01-08T01:08:51;9.57;;;5.85;;
76373;SDS011;65197;50.164;8.012;2023-01-08T01:11:17;19.13;;;9.90;;
76373;SDS011;65197;50.164;8.012;2023-01-08T01:13:45;10.95;;;6.60;;
76373;SDS011;65197;50.164;8.012;2023-01-08T01:16:10;15.00;;;8.45;;
76373;SDS011;65197;50.164;8.012;2023-01-08T01:18:36;11.30;;;6.35;;
76373;SDS011;65197;50.164;8.012;2023-01-08T01:21:01;11.23;;;6.47;;
76373;SDS011;65197;50.164;8.012;2023-01-08T01:23:33;10.75;;;6.28;;
76373;SDS011;65197;50.164;8.012;2023-01-08T01:25:58;10.15;;;5.82;;
76373;SDS011;65197;50.164;8.012;2023-01-08T01:28:23;13.25;;;7.10;;
76373;SDS011;65197;50.164;8.012;2023-01-08T01:30:55;9.05;;;6.20;;
76373;SDS011;65197;50.164;8.012;2023-01-08T01:33:21;15.43;;;8.30;;
76373;SDS011;65197;50.164;8.012;2023-01-08T01:35:47;9.20;;;5.97;;
76373;SDS011;65197;50.164;8.012;2023-01-08T01:38:12;8.85;;;5.68;;
76373;SDS011;65197;50.164;8.012;2023-01-08T01:40:42;7.60;;;5.13;;
76373;SDS011;65197;50.164;8.012;2023-01-08T01:43:12;10.05;;;6.07;;
76373;SDS011;65197;50.164;8.012;2023-01-08T01:45:38;10.70;;;6.10;;
76373;SDS011;65197;50.164;8.012;2023-01-08T01:48:07;8.38;;;5.80;;
76373;SDS011;65197;50.164;8.012;2023-01-08T01:50:40;10.32;;;6.63;;
76373;SDS011;65197;50.164;8.012;2023-01-08T01:53:10;8.40;;;5.72;;
76373;SDS011;65197;50.164;8.012;2023-01-08T01:55:39;22.33;;;15.85;;
76373;SDS011;65197;50.164;8.012;2023-01-08T02:00:40;8.10;;;5.07;;
76373;SDS011;65197;50.164;8.012;2023-01-08T02:03:06;8.27;;;4.88;;
76373;SDS011;65197;50.164;8.012;2023-01-08T02:05:37;8.43;;;5.10;;
76373;SDS011;65197;50.164;8.012;2023-01-08T02:08:10;10.80;;;4.78;;
76373;SDS011;65197;50.164;8.012;2023-01-08T02:10:47;7.80;;;5.20;;
76373;SDS011;65197;50.164;8.012;2023-01-08T02:13:19;6.68;;;4.40;;
76373;SDS011;65197;50.164;8.012;2023-01-08T02:21:12;7.90;;;4.90;;
76373;SDS011;65197;50.164;8.012;2023-01-08T02:23:59;6.00;;;3.80;;
76373;SDS011;65197;50.164;8.012;2023-01-08T02:26:33;6.20;;;4.22;;
76373;SDS011;65197;50.164;8.012;2023-01-08T02:29:02;7.60;;;4.32;;
76373;SDS011;65197;50.164;8.012;2023-01-08T02:31:31;9.23;;;4.68;;
76373;SDS011;65197;50.164;8.012;2023-01-08T02:33:58;6.63;;;4.78;;
76373;SDS011;65197;50.164;8.012;2023-01-08T02:41:58;6.82;;;4.47;;
76373;SDS011;65197;50.164;8.012;2023-01-08T02:50:06;7.05;;;4.72;;
76373;SDS011;65197;50.164;8.012;2023-01-08T02:52:51;7.45;;;4.75;;
76373;SDS011;65197;50.164;8.012;2023-01-08T02:55:19;6.43;;;4.38;;
76373;SDS011;65197;50.164;8.012;2023-01-08T02:57:47;7.22;;;5.15;;
76373;SDS011;65197;50.164;8.012;2023-01-08T03:00:13;7.20;;;4.82;;
76373;SDS011;65197;50.164;8.012;2023-01-08T03:02:39;9.82;;;4.95;;
76373;SDS011;65197;50.164;8.012;2023-01-08T03:05:08;6.63;;;4.40;;
76373;SDS011;65197;50.164;8.012;2023-01-08T03:07:41;6.65;;;4.85;;
76373;SDS011;65197;50.164;8.012;2023-01-08T03:10:09;7.43;;;4.60;;
76373;SDS011;65197;50.164;8.012;2023-01-08T03:12:47;7.65;;;4.82;;
76373;SDS011;65197;50.164;8.012;2023-01-08T03:15:20;8.27;;;5.47;;
76373;SDS011;65197;50.164;8.012;2023-01-08T03:17:51;9.82;;;5.93;;
76373;SDS011;65197;50.164;8.012;2023-01-08T03:20:21;9.35;;;6.05;;
76373;SDS011;65197;50.164;8.012;2023-01-08T03:22:49;10.20;;;6.82;;
76373;SDS011;65197;50.164;8.012;2023-01-08T03:25:19;10.27;;;6.20;;
76373;SDS011;65197;50.164;8.012;2023-01-08T03:27:48;9.88;;;6.43;;
76373;SDS011;65197;50.164;8.012;2023-01-08T03:30:18;10.93;;;6.60;;
76373;SDS011;65197;50.164;8.012;2023-01-08T03:32:45;12.10;;;6.65;;
76373;SDS011;65197;50.164;8.012;2023-01-08T03:35:12;9.32;;;6.43;;
76373;SDS011;65197;50.164;8.012;2023-01-08T03:37:42;12.85;;;6.85;;
76373;SDS011;65197;50.164;8.012;2023-01-08T03:40:12;12.93;;;6.85;;
76373;SDS011;65197;50.164;8.012;2023-01-08T03:42:48;10.50;;;6.15;;
76373;SDS011;65197;50.164;8.012;2023-01-08T03:45:13;17.45;;;8.63;;
76373;SDS011;65197;50.164;8.012;2023-01-08T03:47:39;12.75;;;6.07;;
76373;SDS011;65197;50.164;8.012;2023-01-08T03:50:10;10.60;;;6.75;;
76373;SDS011;65197;50.164;8.012;2023-01-08T03:52:40;10.27;;;6.15;;
76373;SDS011;65197;50.164;8.012;2023-01-08T03:55:06;11.15;;;6.38;;
76373;SDS011;65197;50.164;8.012;2023-01-08T03:57:31;12.52;;;6.90;;
76373;SDS011;65197;50.164;8.012;2023-01-08T03:59:57;10.98;;;6.72;;
76373;SDS011;65197;50.164;8.012;2023-01-08T04:02:22;18.92;;;9.25;;
76373;SDS011;65197;50.164;8.012;2023-01-08T04:04:47;9.93;;;6.60;;
76373;SDS011;65197;50.164;8.012;2023-01-08T04:07:13;13.10;;;7.93;;
76373;SDS011;65197;50.164;8.012;2023-01-08T04:09:38;10.68;;;6.95;;
76373;SDS011;65197;50.164;8.012;2023-01-08T04:12:04;13.35;;;7.55;;
76373;SDS011;65197;50.164;8.012;2023-01-08T04:14:29;16.52;;;7.18;;
76373;SDS011;65197;50.164;8.012;2023-01-08T04:16:55;26.83;;;8.18;;
76373;SDS011;65197;50.164;8.012;2023-01-08T04:19:20;12.40;;;7.13;;
76373;SDS011;65197;50.164;8.012;2023-01-08T04:21:48;12.30;;;6.97;;
76373;SDS011;65197;50.164;8.012;2023-01-08T04:24:14;12.25;;;6.65;;
76373;SDS011;65197;50.164;8.012;2023-01-08T04:26:39;10.60;;;6.60;;
76373;SDS011;65197;50.164;8.012;2023-01-08T04:29:05;14.05;;;6.65;;
76373;SDS011;65197;50.164;8.012;2023-01-08T04:31:30;12.88;;;6.82;;
76373;SDS011;65197;50.164;8.012;2023-01-08T04:33:56;11.38;;;6.70;;
76373;SDS011;65197;50.164;8.012;2023-01-08T04:36:21;11.82;;;6.68;;
76373;SDS011;65197;50.164;8.012;2023-01-08T04:38:46;20.63;;;7.03;;
76373;SDS011;65197;50.164;8.012;2023-01-08T04:41:12;12.98;;;6.07;;
76373;SDS011;65197;50.164;8.012;2023-01-08T04:43:37;18.55;;;6.80;;
76373;SDS011;65197;50.164;8.012;2023-01-08T04:46:03;10.15;;;6.07;;
76373;SDS011;65197;50.164;8.012;2023-01-08T04:48:33;11.68;;;6.40;;
76373;SDS011;65197;50.164;8.012;2023-01-08T04:50:59;10.50;;;6.28;;
76373;SDS011;65197;50.164;8.012;2023-01-08T04:53:26;11.02;;;6.30;;
76373;SDS011;65197;50.164;8.012;2023-01-08T04:55:52;10.02;;;5.57;;
76373;SDS011;65197;50.164;8.012;2023-01-08T04:58:18;8.82;;;5.53;;
76373;SDS011;65197;50.164;8.012;2023-01-08T05:00:43;10.60;;;5.65;;
76373;SDS011;65197;50.164;8.012;2023-01-08T05:03:17;11.07;;;6.10;;
76373;SDS011;65197;50.164;8.012;2023-01-08T05:05:43;10.60;;;6.20;;
76373;SDS011;65197;50.164;8.012;2023-01-08T05:08:08;14.73;;;6.03;;
76373;SDS011;65197;50.164;8.012;2023-01-08T05:10:33;22.83;;;7.07;;
76373;SDS011;65197;50.164;8.012;2023-01-08T05:12:59;10.45;;;6.85;;
76373;SDS011;65197;50.164;8.012;2023-01-08T05:15:25;10.48;;;5.65;;
76373;SDS011;65197;50.164;8.012;2023-01-08T05:18:01;18.33;;;6.65;;
76373;SDS011;65197;50.164;8.012;2023-01-08T05:20:28;10.02;;;6.20;;
76373;SDS011;65197;50.164;8.012;2023-01-08T05:22:54;9.95;;;6.15;;
76373;SDS011;65197;50.164;8.012;2023-01-08T05:25:20;15.23;;;6.32;;
76373;SDS011;65197;50.164;8.012;2023-01-08T05:27:46;8.68;;;5.82;;
76373;SDS011;65197;50.164;8.012;2023-01-08T05:30:11;11.30;;;5.88;;
76373;SDS011;65197;50.164;8.012;2023-01-08T05:32:37;13.30;;;6.63;;
76373;SDS011;65197;50.164;8.012;2023-01-08T05:35:03;9.70;;;6.07;;
76373;SDS011;65197;50.164;8.012;2023-01-08T05:37:28;8.95;;;5.78;;
76373;SDS011;65197;50.164;8.012;2023-01-08T05:39:54;8.90;;;5.30;;
76373;SDS011;65197;50.164;8.012;2023-01-08T05:42:19;6.85;;;4.30;;
76373;SDS011;65197;50.164;8.012;2023-01-08T05:44:44;7.00;;;4.45;;
76373;SDS011;65197;50.164;8.012;2023-01-08T05:47:10;5.43;;;3.42;;
76373;SDS011;65197;50.164;8.012;2023-01-08T05:49:35;4.68;;;3.38;;
76373;SDS011;65197;50.164;8.012;2023-01-08T05:52:00;4.28;;;2.88;;
76373;SDS011;65197;50.164;8.012;2023-01-08T05:54:26;8.88;;;3.28;;
76373;SDS011;65197;50.164;8.012;2023-01-08T05:56:51;5.25;;;3.10;;
76373;SDS011;65197;50.164;8.012;2023-01-08T05:59:16;4.70;;;2.92;;
76373;SDS011;65197;50.164;8.012;2023-01-08T06:01:42;6.03;;;3.35;;
76373;SDS011;65197;50.164;8.012;2023-01-08T06:04:07;5.03;;;3.38;;
76373;SDS011;65197;50.164;8.012;2023-01-08T06:06:32;4.97;;;3.13;;
76373;SDS011;65197;50.164;8.012;2023-01-08T06:08:58;5.40;;;3.30;;
76373;SDS011;65197;50.164;8.012;2023-01-08T06:11:23;5.22;;;2.90;;
76373;SDS011;65197;50.164;8.012;2023-01-08T06:13:48;5.18;;;3.22;;
76373;SDS011;65197;50.164;8.012;2023-01-08T06:16:14;5.57;;;3.63;;
76373;SDS011;65197;50.164;8.012;2023-01-08T06:18:41;5.45;;;3.50;;
76373;SDS011;65197;50.164;8.012;2023-01-08T06:21:07;6.95;;;4.05;;
76373;SDS011;65197;50.164;8.012;2023-01-08T06:23:32;5.25;;;3.22;;
76373;SDS011;65197;50.164;8.012;2023-01-08T06:25:58;7.30;;;3.55;;
76373;SDS011;65197;50.164;8.012;2023-01-08T06:28:24;6.13;;;3.22;;
76373;SDS011;65197;50.164;8.012;2023-01-08T06:30:50;4.72;;;2.92;;
76373;SDS011;65197;50.164;8.012;2023-01-08T06:33:16;4.13;;;2.95;;
76373;SDS011;65197;50.164;8.012;2023-01-08T06:35:41;6.75;;;3.60;;
76373;SDS011;65197;50.164;8.012;2023-01-08T06:38:07;4.65;;;3.03;;
76373;SDS011;65197;50.164;8.012;2023-01-08T06:40:32;4.82;;;3.00;;
76373;SDS011;65197;50.164;8.012;2023-01-08T06:43:01;4.65;;;2.88;;
76373;SDS011;65197;50.164;8.012;2023-01-08T06:45:27;5.43;;;3.53;;
76373;SDS011;65197;50.164;8.012;2023-01-08T06:47:52;5.97;;;3.50;;
76373;SDS011;65197;50.164;8.012;2023-01-08T06:50:18;6.57;;;3.88;;
76373;SDS011;65197;50.164;8.012;2023-01-08T06:52:43;7.15;;;4.03;;
76373;SDS011;65197;50.164;8.012;2023-01-08T06:55:09;5.40;;;3.85;;
76373;SDS011;65197;50.164;8.012;2023-01-08T06:57:34;5.15;;;3.55;;
76373;SDS011;65197;50.164;8.012;2023-01-08T06:59:59;7.28;;;3.88;;
76373;SDS011;65197;50.164;8.012;2023-01-08T07:02:25;6.95;;;3.42;;
76373;SDS011;65197;50.164;8.012;2023-01-08T07:04:50;7.50;;;3.88;;
76373;SDS011;65197;50.164;8.012;2023-01-08T07:07:15;7.03;;;4.15;;
76373;SDS011;65197;50.164;8.012;2023-01-08T07:09:41;6.63;;;3.75;;
76373;SDS011;65197;50.164;8.012;2023-01-08T07:12:10;6.80;;;3.90;;
76373;SDS011;65197;50.164;8.012;2023-01-08T07:14:39;6.50;;;4.25;;
76373;SDS011;65197;50.164;8.012;2023-01-08T07:17:04;7.20;;;4.57;;
76373;SDS011;65197;50.164;8.012;2023-01-08T07:19:30;7.07;;;4.43;;
76373;SDS011;65197;50.164;8.012;2023-01-08T07:21:56;6.60;;;3.72;;
76373;SDS011;65197;50.164;8.012;2023-01-08T07:24:21;8.30;;;4.75;;
76373;SDS011;65197;50.164;8.012;2023-01-08T07:26:46;6.80;;;4.07;;
76373;SDS011;65197;50.164;8.012;2023-01-08T07:29:12;6.97;;;4.32;;
76373;SDS011;65197;50.164;8.012;2023-01-08T07:31:37;8.00;;;4.63;;
76373;SDS011;65197;50.164;8.012;2023-01-08T07:34:02;6.55;;;4.35;;
76373;SDS011;65197;50.164;8.012;2023-01-08T07:36:28;7.70;;;4.93;;
76373;SDS011;65197;50.164;8.012;2023-01-08T07:38:53;7.65;;;4.40;;
76373;SDS011;65197;50.164;8.012;2023-01-08T07:41:19;5.97;;;4.10;;
76373;SDS011;65197;50.164;8.012;2023-01-08T07:43:46;6.85;;;4.43;;
76373;SDS011;65197;50.164;8.012;2023-01-08T07:46:12;6.68;;;4.22;;
76373;SDS011;65197;50.164;8.012;2023-01-08T07:48:37;6.63;;;4.32;;
76373;SDS011;65197;50.164;8.012;2023-01-08T07:51:04;7.47;;;4.18;;
76373;SDS011;65197;50.164;8.012;2023-01-08T07:53:31;6.20;;;4.40;;
76373;SDS011;65197;50.164;8.012;2023-01-08T07:56:00;5.75;;;3.55;;
76373;SDS011;65197;50.164;8.012;2023-01-08T07:58:27;7.97;;;4.40;;
76373;SDS011;65197;50.164;8.012;2023-01-08T08:00:52;6.60;;;3.88;;
76373;SDS011;65197;50.164;8.012;2023-01-08T08:03:18;5.68;;;3.90;;
76373;SDS011;65197;50.164;8.012;2023-01-08T08:05:43;6.25;;;4.13;;
76373;SDS011;65197;50.164;8.012;2023-01-08T08:08:09;5.22;;;3.60;;
76373;SDS011;65197;50.164;8.012;2023-01-08T08:10:35;7.07;;;3.55;;
76373;SDS011;65197;50.164;8.012;2023-01-08T08:13:01;4.82;;;3.45;;
76373;SDS011;65197;50.164;8.012;2023-01-08T08:15:27;5.75;;;3.47;;
76373;SDS011;65197;50.164;8.012;2023-01-08T08:17:52;5.47;;;3.70;;
76373;SDS011;65197;50.164;8.012;2023-01-08T08:20:18;6.00;;;3.58;;
76373;SDS011;65197;50.164;8.012;2023-01-08T08:22:43;6.03;;;3.85;;
76373;SDS011;65197;50.164;8.012;2023-01-08T08:25:09;4.55;;;3.28;;
76373;SDS011;65197;50.164;8.012;2023-01-08T08:27:34;5.30;;;3.78;;
76373;SDS011;65197;50.164;8.012;2023-01-08T08:30:00;4.75;;;2.85;;
76373;SDS011;65197;50.164;8.012;2023-01-08T08:32:25;3.75;;;2.83;;
76373;SDS011;65197;50.164;8.012;2023-01-08T08:34:51;5.38;;;3.05;;
76373;SDS011;65197;50.164;8.012;2023-01-08T08:37:17;5.20;;;3.20;;
76373;SDS011;65197;50.164;8.012;2023-01-08T08:39:42;5.43;;;3.25;;
76373;SDS011;65197;50.164;8.012;2023-01-08T08:42:08;5.40;;;3.70;;
76373;SDS011;65197;50.164;8.012;2023-01-08T08:44:33;5.10;;;2.88;;
76373;SDS011;65197;50.164;8.012;2023-01-08T08:46:58;3.08;;;2.30;;
76373;SDS011;65197;50.164;8.012;2023-01-08T08:49:24;3.30;;;2.10;;
76373;SDS011;65197;50.164;8.012;2023-01-08T08:51:49;3.00;;;2.08;;
76373;SDS011;65197;50.164;8.012;2023-01-08T08:54:14;4.15;;;2.22;;
76373;SDS011;65197;50.164;8.012;2023-01-08T08:56:40;3.67;;;2.60;;
76373;SDS011;65197;50.164;8.012;2023-01-08T08:59:05;5.43;;;2.60;;
76373;SDS011;65197;50.164;8.012;2023-01-08T09:01:33;3.65;;;2.60;;
76373;SDS011;65197;50.164;8.012;2023-01-08T09:03:58;4.20;;;2.88;;
76373;SDS011;65197;50.164;8.012;2023-01-08T09:06:23;3.53;;;2.45;;
76373;SDS011;65197;50.164;8.012;2023-01-08T09:08:51;4.80;;;2.88;;
76373;SDS011;65197;50.164;8.012;2023-01-08T09:11:19;5.28;;;2.88;;
76373;SDS011;65197;50.164;8.012;2023-01-08T09:13:44;5.28;;;3.35;;
76373;SDS011;65197;50.164;8.012;2023-01-08T09:16:10;4.07;;;2.90;;
76373;SDS011;65197;50.164;8.012;2023-01-08T09:18:35;3.58;;;2.47;;
76373;SDS011;65197;50.164;8.012;2023-01-08T09:21:04;4.15;;;2.70;;
76373;SDS011;65197;50.164;8.012;2023-01-08T09:23:30;4.68;;;2.90;;
76373;SDS011;65197;50.164;8.012;2023-01-08T09:25:59;3.95;;;2.33;;
76373;SDS011;65197;50.164;8.012;2023-01-08T09:28:25;4.43;;;2.60;;
76373;SDS011;65197;50.164;8.012;2023-01-08T09:30:51;4.88;;;2.70;;
76373;SDS011;65197;50.164;8.012;2023-01-08T09:33:16;4.88;;;2.80;;
76373;SDS011;65197;50.164;8.012;2023-01-08T09:35:42;6.18;;;3.08;;
76373;SDS011;65197;50.164;8.012;2023-01-08T09:38:08;4.40;;;2.92;;
76373;SDS011;65197;50.164;8.012;2023-01-08T09:40:35;4.40;;;2.80;;
76373;SDS011;65197;50.164;8.012;2023-01-08T09:43:04;3.70;;;2.38;;
76373;SDS011;65197;50.164;8.012;2023-01-08T09:45:30;4.65;;;2.67;;
76373;SDS011;65197;50.164;8.012;2023-01-08T09:48:01;4.30;;;2.92;;
76373;SDS011;65197;50.164;8.012;2023-01-08T09:50:30;3.53;;;2.70;;
76373;SDS011;65197;50.164;8.012;2023-01-08T09:52:57;3.78;;;2.72;;
76373;SDS011;65197;50.164;8.012;2023-01-08T09:55:23;5.05;;;3.08;;
76373;SDS011;65197;50.164;8.012;2023-01-08T09:57:49;4.40;;;2.70;;
76373;SDS011;65197;50.164;8.012;2023-01-08T10:00:16;4.90;;;3.08;;
76373;SDS011;65197;50.164;8.012;2023-01-08T10:02:45;4.85;;;3.15;;
76373;SDS011;65197;50.164;8.012;2023-01-08T10:05:12;5.13;;;3.17;;
76373;SDS011;65197;50.164;8.012;2023-01-08T10:07:41;3.38;;;2.25;;
76373;SDS011;65197;50.164;8.012;2023-01-08T10:10:27;3.90;;;2.60;;
76373;SDS011;65197;50.164;8.012;2023-01-08T10:12:54;4.38;;;2.65;;
76373;SDS011;65197;50.164;8.012;2023-01-08T10:15:20;4.13;;;2.60;;
76373;SDS011;65197;50.164;8.012;2023-01-08T10:20:34;4.60;;;2.50;;
76373;SDS011;65197;50.164;8.012;2023-01-08T10:23:12;3.40;;;2.40;;
76373;SDS011;65197;50.164;8.012;2023-01-08T10:25:47;4.38;;;2.47;;
76373;SDS011;65197;50.164;8.012;2023-01-08T10:28:18;3.17;;;2.17;;
76373;SDS011;65197;50.164;8.012;2023-01-08T10:31:06;3.45;;;2.25;;
76373;SDS011;65197;50.164;8.012;2023-01-08T10:33:39;3.78;;;2.25;;
76373;SDS011;65197;50.164;8.012;2023-01-08T10:36:08;3.53;;;2.08;;
76373;SDS011;65197;50.164;8.012;2023-01-08T10:38:38;3.47;;;2.17;;
76373;SDS011;65197;50.164;8.012;2023-01-08T10:41:14;3.33;;;2.15;;
76373;SDS011;65197;50.164;8.012;2023-01-08T10:43:53;2.47;;;1.75;;
76373;SDS011;65197;50.164;8.012;2023-01-08T10:46:26;3.38;;;1.92;;
76373;SDS011;65197;50.164;8.012;2023-01-08T10:48:55;3.88;;;2.20;;
76373;SDS011;65197;50.164;8.012;2023-01-08T10:51:23;3.40;;;2.10;;
76373;SDS011;65197;50.164;8.012;2023-01-08T10:53:51;2.10;;;1.60;;
76373;SDS011;65197;50.164;8.012;2023-01-08T10:56:27;2.58;;;1.80;;
76373;SDS011;65197;50.164;8.012;2023-01-08T10:58:54;2.92;;;1.95;;
76373;SDS011;65197;50.164;8.012;2023-01-08T11:03:49;2.05;;;1.50;;
76373;SDS011;65197;50.164;8.012;2023-01-08T11:06:22;3.05;;;2.00;;
76373;SDS011;65197;50.164;8.012;2023-01-08T11:08:56;4.60;;;2.00;;
76373;SDS011;65197;50.164;8.012;2023-01-08T11:11:23;3.03;;;2.05;;
76373;SDS011;65197;50.164;8.012;2023-01-08T11:13:59;3.63;;;2.20;;
76373;SDS011;65197;50.164;8.012;2023-01-08T11:16:31;3.45;;;2.15;;
76373;SDS011;65197;50.164;8.012;2023-01-08T11:18:59;2.90;;;2.13;;
76373;SDS011;65197;50.164;8.012;2023-01-08T11:21:25;3.15;;;2.10;;
76373;SDS011;65197;50.164;8.012;2023-01-08T11:26:41;2.65;;;1.95;;
76373;SDS011;65197;50.164;8.012;2023-01-08T11:29:13;3.60;;;1.85;;
76373;SDS011;65197;50.164;8.012;2023-01-08T11:34:14;4.47;;;2.22;;
76373;SDS011;65197;50.164;8.012;2023-01-08T11:37:12;3.13;;;2.03;;
76373;SDS011;65197;50.164;8.012;2023-01-08T11:39:43;4.20;;;2.25;;
76373;SDS011;65197;50.164;8.012;2023-01-08T11:42:28;2.95;;;1.90;;
76373;SDS011;65197;50.164;8.012;2023-01-08T11:48:17;3.20;;;2.10;;
76373;SDS011;65197;50.164;8.012;2023-01-08T11:53:41;3.10;;;2.10;;
76373;SDS011;65197;50.164;8.012;2023-01-08T12:04:22;3.55;;;2.30;;
76373;SDS011;65197;50.164;8.012;2023-01-08T12:09:43;3.92;;;2.38;;
76373;SDS011;65197;50.164;8.012;2023-01-08T12:12:18;3.90;;;2.60;;
76373;SDS011;65197;50.164;8.012;2023-01-08T12:15:03;4.05;;;2.40;;
76373;SDS011;65197;50.164;8.012;2023-01-08T12:25:59;4.22;;;2.53;;
76373;SDS011;65197;50.164;8.012;2023-01-08T12:34:06;6.05;;;3.03;;
76373;SDS011;65197;50.164;8.012;2023-01-08T12:36:44;4.97;;;2.80;;
76373;SDS011;65197;50.164;8.012;2023-01-08T12:39:14;3.20;;;2.13;;
76373;SDS011;65197;50.164;8.012;2023-01-08T12:41:45;3.67;;;2.58;;
76373;SDS011;65197;50.164;8.012;2023-01-08T12:44:14;3.22;;;2.35;;
76373;SDS011;65197;50.164;8.012;2023-01-08T12:46:46;4.25;;;2.90;;
76373;SDS011;65197;50.164;8.012;2023-01-08T12:49:14;5.13;;;2.50;;
76373;SDS011;65197;50.164;8.012;2023-01-08T12:54:37;4.07;;;2.92;;
76373;SDS011;65197;50.164;8.012;2023-01-08T12:57:11;4.68;;;2.55;;
76373;SDS011;65197;50.164;8.012;2023-01-08T13:00:16;3.22;;;2.25;;
76373;SDS011;65197;50.164;8.012;2023-01-08T13:03:03;4.68;;;2.80;;
76373;SDS011;65197;50.164;8.012;2023-01-08T13:05:35;3.55;;;2.47;;
76373;SDS011;65197;50.164;8.012;2023-01-08T13:08:05;4.20;;;3.28;;
76373;SDS011;65197;50.164;8.012;2023-01-08T13:10:49;4.22;;;2.63;;
76373;SDS011;65197;50.164;8.012;2023-01-08T13:13:27;5.32;;;3.10;;
76373;SDS011;65197;50.164;8.012;2023-01-08T13:16:07;4.35;;;2.90;;
76373;SDS011;65197;50.164;8.012;2023-01-08T13:18:33;5.78;;;3.22;;
76373;SDS011;65197;50.164;8.012;2023-01-08T13:21:00;5.07;;;3.38;;
76373;SDS011;65197;50.164;8.012;2023-01-08T13:23:28;3.85;;;2.47;;
76373;SDS011;65197;50.164;8.012;2023-01-08T13:25:56;3.85;;;2.63;;
76373;SDS011;65197;50.164;8.012;2023-01-08T13:30:49;4.13;;;3.00;;
76373;SDS011;65197;50.164;8.012;2023-01-08T13:36:15;4.63;;;2.60;;
76373;SDS011;65197;50.164;8.012;2023-01-08T13:42:29;4.68;;;2.75;;
76373;SDS011;65197;50.164;8.012;2023-01-08T13:47:14;15.63;;;10.88;;
76373;SDS011;65197;50.164;8.012;2023-01-08T13:49:48;18.42;;;10.45;;
76373;SDS011;65197;50.164;8.012;2023-01-08T13:55:01;11.05;;;7.18;;
76373;SDS011;65197;50.164;8.012;2023-01-08T13:57:30;5.78;;;3.47;;
76373;SDS011;65197;50.164;8.012;2023-01-08T14:00:03;5.60;;;3.25;;
76373;SDS011;65197;50.164;8.012;2023-01-08T14:02:31;6.18;;;4.20;;
76373;SDS011;65197;50.164;8.012;2023-01-08T14:04:58;5.05;;;2.55;;
76373;SDS011;65197;50.164;8.012;2023-01-08T14:07:25;4.20;;;3.35;;
76373;SDS011;65197;50.164;8.012;2023-01-08T14:09:51;4.07;;;3.08;;
76373;SDS011;65197;50.164;8.012;2023-01-08T14:12:18;5.35;;;3.40;;
76373;SDS011;65197;50.164;8.012;2023-01-08T14:14:53;5.13;;;4.13;;
76373;SDS011;65197;50.164;8.012;2023-01-08T14:17:22;7.22;;;6.03;;
76373;SDS011;65197;50.164;8.012;2023-01-08T14:19:53;5.63;;;3.25;;
76373;SDS011;65197;50.164;8.012;2023-01-08T14:22:20;3.90;;;2.78;;
76373;SDS011;65197;50.164;8.012;2023-01-08T14:24:54;8.65;;;3.75;;
76373;SDS011;65197;50.164;8.012;2023-01-08T14:27:25;8.70;;;5.22;;
76373;SDS011;65197;50.164;8.012;2023-01-08T14:29:52;3.53;;;2.92;;
76373;SDS011;65197;50.164;8.012;2023-01-08T14:32:19;5.32;;;3.97;;
76373;SDS011;65197;50.164;8.012;2023-01-08T14:34:48;2.45;;;1.88;;
76373;SDS011;65197;50.164;8.012;2023-01-08T14:37:15;2.83;;;2.03;;
76373;SDS011;65197;50.164;8.012;2023-01-08T14:39:41;2.88;;;2.20;;
76373;SDS011;65197;50.164;8.012;2023-01-08T14:42:53;2.65;;;2.05;;
76373;SDS011;65197;50.164;8.012;2023-01-08T14:48:16;3.35;;;2.17;;
76373;SDS011;65197;50.164;8.012;2023-01-08T14:50:39;8.10;;;4.35;;
76373;SDS011;65197;50.164;8.012;2023-01-08T14:55:54;3.95;;;1.98;;
76373;SDS011;65197;50.164;8.012;2023-01-08T14:58:22;3.28;;;2.22;;
76373;SDS011;65197;50.164;8.012;2023-01-08T15:00:50;6.38;;;2.15;;
76373;SDS011;65197;50.164;8.012;2023-01-08T15:03:32;3.67;;;2.45;;
76373;SDS011;65197;50.164;8.012;2023-01-08T15:06:02;3.95;;;2.00;;
76373;SDS011;65197;50.164;8.012;2023-01-08T15:11:08;3.38;;;2.30;;
76373;SDS011;65197;50.164;8.012;2023-01-08T15:13:45;5.38;;;3.42;;
76373;SDS011;65197;50.164;8.012;2023-01-08T15:19:04;7.13;;;3.55;;
76373;SDS011;65197;50.164;8.012;2023-01-08T15:21:34;3.40;;;2.53;;
76373;SDS011;65197;50.164;8.012;2023-01-08T15:24:00;5.13;;;3.08;;
76373;SDS011;65197;50.164;8.012;2023-01-08T15:26:27;4.38;;;3.38;;
76373;SDS011;65197;50.164;8.012;2023-01-08T15:28:54;3.22;;;2.20;;
76373;SDS011;65197;50.164;8.012;2023-01-08T15:31:29;7.80;;;5.38;;
76373;SDS011;65197;50.164;8.012;2023-01-08T15:33:55;2.88;;;2.08;;
76373;SDS011;65197;50.164;8.012;2023-01-08T15:36:21;4.43;;;2.42;;
76373;SDS011;65197;50.164;8.012;2023-01-08T15:38:47;5.35;;;2.38;;
76373;SDS011;65197;50.164;8.012;2023-01-08T15:41:17;3.92;;;2.42;;
76373;SDS011;65197;50.164;8.012;2023-01-08T15:44:03;4.90;;;2.80;;
76373;SDS011;65197;50.164;8.012;2023-01-08T15:46:29;3.65;;;2.53;;
76373;SDS011;65197;50.164;8.012;2023-01-08T15:48:55;3.10;;;2.25;;
76373;SDS011;65197;50.164;8.012;2023-01-08T15:51:20;3.15;;;2.38;;
76373;SDS011;65197;50.164;8.012;2023-01-08T15:53:46;3.35;;;2.00;;
76373;SDS011;65197;50.164;8.012;2023-01-08T15:56:11;4.97;;;1.92;;
76373;SDS011;65197;50.164;8.012;2023-01-08T15:58:37;6.68;;;2.20;;
76373;SDS011;65197;50.164;8.012;2023-01-08T16:01:02;2.92;;;1.88;;
76373;SDS011;65197;50.164;8.012;2023-01-08T16:03:28;2.50;;;1.70;;
76373;SDS011;65197;50.164;8.012;2023-01-08T16:05:54;2.53;;;1.60;;
76373;SDS011;65197;50.164;8.012;2023-01-08T16:08:20;3.30;;;1.83;;
76373;SDS011;65197;50.164;8.012;2023-01-08T16:10:50;4.05;;;1.88;;
76373;SDS011;65197;50.164;8.012;2023-01-08T16:13:18;6.75;;;2.78;;
76373;SDS011;65197;50.164;8.012;2023-01-08T16:15:43;6.68;;;3.47;;
76373;SDS011;65197;50.164;8.012;2023-01-08T16:18:09;16.95;;;7.60;;